Time;durP1;ratioP1;P1;durP2;ratioP2;P2;SDS_P1;SDS_P2;PMS_P1;PMS_P2;Temp;Humidity;BMP_temperature;BMP_pressure;BME280_temperature;BME280_humidity;BME280_pressure;Samples;Min_cycle;Max_cycle;Signal;HPM_P1;HPM_P2
2024/02/01 00:00:18;;;;;;;15.52;8.45;;;;;;;7.39;75.83;99798.44;4995576;28;104146;-73
2024/02/01 00:02:46;;;;;;;9.82;6.50;;;;;;;7.41;76.36;99793.88;4988459;28;104814;-73
2024/02/01 00:05:14;;;;;;;12.45;8.80;;;;;;;7.47;76.28;99782.03;4986403;28;103948;-73
2024/02/01 00:07:43;;;;;;;11.23;7.95;;;;;;;7.50;75.94;99789.69;5009321;28;102721;-73
2024/02/01 00:10:11;;;;;;;16.92;9.00;;;;;;;7.51;75.12;99785.28;5011103;28;104300;-73
2024/02/01 00:12:41;;;;;;;9.82;6.80;;;;;;;7.53;76.35;99789.44;5006086;28;103738;-73
2024/02/01 00:15:10;;;;;;;11.02;5.88;;;;;;;7.59;76.15;99790.75;5008544;28;103062;-72
2024/02/01 00:17:38;;;;;;;8.68;4.97;;;;;;;7.62;75.15;99785.25;4994434;28;103539;-73
2024/02/01 00:20:07;;;;;;;8.63;5.93;;;;;;;7.64;75.45;99783.34;5006324;28;103976;-73
2024/02/01 00:22:35;;;;;;;19.65;8.50;;;;;;;7.56;75.98;99789.22;5009734;28;104156;-72
2024/02/01 00:25:06;;;;;;;12.57;7.68;;;;;;;7.58;75.33;99778.53;5009097;28;103229;-73
2024/02/01 00:27:34;;;;;;;10.15;6.10;;;;;;;7.60;75.66;99776.63;5004176;28;102537;-72
2024/02/01 00:30:04;;;;;;;9.30;5.40;;;;;;;7.58;75.74;99774.09;4991387;28;102857;-72
2024/02/01 00:32:32;;;;;;;8.60;6.43;;;;;;;7.63;75.49;99771.94;5005688;28;104379;-72
2024/02/01 00:35:00;;;;;;;9.30;6.32;;;;;;;7.63;75.79;99768.47;5009600;28;103186;-72
2024/02/01 00:37:28;;;;;;;9.75;6.32;;;;;;;7.63;75.78;99771.09;5012706;28;103640;-72
2024/02/01 00:39:56;;;;;;;10.80;6.43;;;;;;;7.58;76.00;99774.09;5003597;28;104137;-72
2024/02/01 00:42:24;;;;;;;9.80;6.75;;;;;;;7.60;75.30;99774.00;4990843;28;104275;-72
2024/02/01 00:44:52;;;;;;;10.98;6.60;;;;;;;7.66;75.42;99773.47;5006104;28;103333;-73
2024/02/01 00:47:21;;;;;;;11.30;6.60;;;;;;;7.63;74.93;99781.66;5013487;28;102636;-73
2024/02/01 00:49:49;;;;;;;16.05;10.05;;;;;;;7.70;74.61;99782.81;4992650;28;104119;-73
2024/02/01 00:52:17;;;;;;;10.55;6.90;;;;;;;7.82;74.04;99785.44;5005054;28;104274;-72
2024/02/01 00:54:45;;;;;;;10.07;6.22;;;;;;;7.88;72.93;99777.03;5011123;28;103242;-72
2024/02/01 00:57:12;;;;;;;9.20;4.65;;;;;;;7.91;73.33;99771.50;5005586;28;102651;-73
2024/02/01 00:59:43;;;;;;;9.45;5.18;;;;;;;7.91;71.37;99776.78;4986831;28;102830;-73
2024/02/01 01:02:13;;;;;;;7.90;4.43;;;;;;;7.91;72.45;99779.41;5008952;28;104221;-73
2024/02/01 01:04:43;;;;;;;6.72;4.10;;;;;;;7.91;71.88;99784.69;5011515;28;103240;-73
2024/02/01 01:07:11;;;;;;;6.97;3.78;;;;;;;8.01;72.38;99785.63;5007095;28;102603;-72
2024/02/01 01:09:39;;;;;;;6.85;4.25;;;;;;;7.99;72.96;99782.28;5006485;28;104057;-72
2024/02/01 01:12:07;;;;;;;7.95;5.43;;;;;;;7.99;73.30;99787.56;5007813;28;104498;-73
2024/02/01 01:14:35;;;;;;;9.10;5.82;;;;;;;8.07;73.37;99790.41;4993284;28;104379;-73
2024/02/01 01:17:06;;;;;;;8.20;5.15;;;;;;;8.11;73.30;99791.00;4986470;28;102645;-72
2024/02/01 01:19:34;;;;;;;14.07;6.32;;;;;;;8.08;74.08;99801.78;5008222;28;103876;-73
2024/02/01 01:22:04;;;;;;;8.95;6.35;;;;;;;8.14;73.64;99796.84;5009884;27;103884;-73
2024/02/01 01:24:32;;;;;;;13.85;7.20;;;;;;;8.06;74.53;99793.19;5014463;28;103281;-73
2024/02/01 01:27:00;;;;;;;13.13;7.45;;;;;;;8.17;74.42;99800.22;4994951;28;103323;-71
2024/02/01 01:29:28;;;;;;;11.27;6.30;;;;;;;8.20;74.21;99794.66;4990066;28;102795;-73
2024/02/01 01:31:56;;;;;;;7.85;5.55;;;;;;;8.22;74.28;99790.13;5015753;28;103925;-74
2024/02/01 01:34:24;;;;;;;10.30;6.22;;;;;;;8.20;74.32;99799.94;5004241;28;103157;-74
2024/02/01 01:36:52;;;;;;;8.55;5.93;;;;;;;8.20;74.66;99800.81;5011093;28;102873;-74
2024/02/01 01:39:21;;;;;;;10.52;7.03;;;;;;;8.23;74.26;99794.44;5014938;28;103615;-74
2024/02/01 01:41:49;;;;;;;12.27;6.63;;;;;;;8.15;74.71;99795.06;5011756;28;104356;-72
2024/02/01 01:44:17;;;;;;;10.73;6.90;;;;;;;8.22;74.09;99798.03;4985907;28;104607;-72
2024/02/01 01:46:45;;;;;;;10.23;6.43;;;;;;;8.15;74.51;99792.44;4990514;28;102601;-72
2024/02/01 01:49:16;;;;;;;11.13;7.10;;;;;;;8.19;74.15;99798.28;4995880;28;104302;-72
2024/02/01 01:51:45;;;;;;;10.38;6.53;;;;;;;8.24;74.07;99796.09;5010515;28;103520;-73
2024/02/01 01:54:14;;;;;;;12.07;6.53;;;;;;;8.12;73.36;99796.16;5013081;28;103265;-72
2024/02/01 01:56:46;;;;;;;9.88;6.50;;;;;;;8.22;73.14;99808.59;5009320;28;103016;-73
2024/02/01 01:59:15;;;;;;;8.93;5.70;;;;;;;8.28;73.13;99808.09;4989438;28;103879;-73
2024/02/01 02:01:47;;;;;;;10.27;6.30;;;;;;;8.19;72.94;99808.81;4990405;28;104296;-73
2024/02/01 02:04:16;;;;;;;10.15;5.60;;;;;;;8.21;73.62;99796.34;5006385;28;105416;-72
2024/02/01 02:06:44;;;;;;;10.05;6.63;;;;;;;8.21;73.02;99806.91;5012352;28;102647;-73
2024/02/01 02:09:13;;;;;;;9.10;6.00;;;;;;;8.13;72.86;99795.19;5013021;28;102714;-72
2024/02/01 02:11:43;;;;;;;9.77;6.53;;;;;;;8.18;73.01;99791.34;5016904;28;104322;-73
2024/02/01 02:14:13;;;;;;;8.52;5.50;;;;;;;8.21;72.68;99785.81;5011356;28;103154;-73
2024/02/01 02:16:41;;;;;;;11.05;6.25;;;;;;;8.20;72.90;99781.47;4991905;28;102696;-73
2024/02/01 02:19:10;;;;;;;9.10;6.30;;;;;;;8.10;72.66;99779.59;4983877;28;102745;-73
2024/02/01 02:21:46;;;;;;;12.15;6.13;;;;;;;8.05;72.54;99773.03;5011441;28;103999;-72
2024/02/01 02:24:14;;;;;;;10.63;5.70;;;;;;;8.18;72.26;99770.22;4994770;28;104399;-73
2024/02/01 02:26:42;;;;;;;12.15;6.45;;;;;;;8.16;72.65;99778.25;5013343;28;102583;-73
2024/02/01 02:29:10;;;;;;;9.50;6.45;;;;;;;8.17;72.56;99789.66;5004900;28;102807;-73
2024/02/01 02:31:38;;;;;;;9.23;6.65;;;;;;;8.21;72.25;99785.81;5011625;28;103813;-73
2024/02/01 02:34:06;;;;;;;14.13;6.40;;;;;;;8.12;71.90;99782.97;5005113;28;103184;-73
2024/02/01 02:36:34;;;;;;;11.73;6.47;;;;;;;8.18;71.81;99775.50;5008928;28;102552;-73
2024/02/01 02:39:04;;;;;;;10.32;5.88;;;;;;;8.12;72.22;99761.84;4994439;28;102703;-73
2024/02/01 02:41:32;;;;;;;9.15;5.43;;;;;;;8.04;72.11;99766.91;5016204;28;104006;-72
2024/02/01 02:44:02;;;;;;;9.93;5.57;;;;;;;8.08;71.89;99778.91;5011062;28;102655;-73
2024/02/01 02:46:31;;;;;;;9.60;6.53;;;;;;;8.10;71.68;99779.59;5009854;28;103007;-73
2024/02/01 02:48:59;;;;;;;8.68;5.13;;;;;;;8.18;70.98;99775.50;5002163;28;102727;-71
2024/02/01 02:51:27;;;;;;;7.07;4.68;;;;;;;8.23;70.87;99781.25;5012671;28;103604;-72
2024/02/01 02:53:55;;;;;;;9.27;5.53;;;;;;;8.18;70.28;99776.34;5011852;28;103309;-72
2024/02/01 02:56:25;;;;;;;8.68;5.10;;;;;;;8.25;70.03;99769.59;5012230;28;102567;-72
2024/02/01 02:58:53;;;;;;;7.88;5.75;;;;;;;8.22;69.83;99763.72;5010594;28;104394;-72
2024/02/01 03:01:21;;;;;;;8.13;4.78;;;;;;;8.31;69.74;99765.59;4988616;28;104216;-73
2024/02/01 03:03:49;;;;;;;9.32;5.50;;;;;;;8.32;69.88;99769.94;5005961;28;103201;-72
2024/02/01 03:06:17;;;;;;;8.63;4.68;;;;;;;8.27;69.29;99769.47;5014830;28;102627;-72
2024/02/01 03:08:45;;;;;;;6.95;4.25;;;;;;;8.32;69.53;99767.28;5012080;28;102604;-72
2024/02/01 03:11:13;;;;;;;6.85;4.60;;;;;;;8.26;69.43;99767.78;5007002;28;104047;-72
2024/02/01 03:13:45;;;;;;;9.43;4.93;;;;;;;8.27;68.88;99770.28;5012221;28;104064;-73
2024/02/01 03:16:17;;;;;;;8.17;4.83;;;;;;;8.30;68.73;99769.19;5005389;28;103306;-72
2024/02/01 03:18:45;;;;;;;7.30;4.38;;;;;;;8.30;68.08;99762.13;4993638;28;102762;-72
2024/02/01 03:21:15;;;;;;;7.90;4.70;;;;;;;8.25;68.81;99759.03;5016324;28;103248;-72
2024/02/01 03:23:45;;;;;;;6.35;4.22;;;;;;;8.29;68.95;99746.41;5007630;28;103214;-72
2024/02/01 03:26:14;;;;;;;6.15;3.85;;;;;;;8.27;68.84;99743.06;4995234;28;102585;-73
2024/02/01 03:28:44;;;;;;;5.80;3.65;;;;;;;8.25;68.77;99745.00;5007755;28;102762;-73
2024/02/01 03:31:12;;;;;;;6.50;3.85;;;;;;;8.25;68.38;99737.06;5010103;28;103842;-73
2024/02/01 03:33:44;;;;;;;5.70;3.78;;;;;;;8.19;68.30;99740.22;5008247;28;103320;-73
2024/02/01 03:36:14;;;;;;;5.10;3.70;;;;;;;8.12;68.55;99730.19;5007781;28;102655;-73
2024/02/01 03:38:42;;;;;;;6.88;3.85;;;;;;;8.16;69.04;99735.19;4991289;28;104510;-73
2024/02/01 03:41:11;;;;;;;6.03;3.63;;;;;;;8.18;68.52;99746.47;4992420;28;104181;-73
2024/02/01 03:43:39;;;;;;;10.20;4.20;;;;;;;8.17;68.30;99752.72;5016745;28;103392;-74
2024/02/01 03:46:08;;;;;;;8.05;4.00;;;;;;;8.20;68.32;99750.66;5010150;28;102699;-73
2024/02/01 03:48:36;;;;;;;5.10;3.17;;;;;;;8.22;68.55;99753.16;5012994;28;102758;-72
2024/02/01 03:51:07;;;;;;;8.85;4.30;;;;;;;8.22;68.11;99746.06;5015938;28;104165;-73
2024/02/01 03:53:36;;;;;;;5.53;3.45;;;;;;;8.20;68.82;99755.94;5006410;28;103381;-72
2024/02/01 03:56:04;;;;;;;6.95;3.80;;;;;;;8.24;68.07;99753.88;5007571;28;102685;-73
2024/02/01 03:58:33;;;;;;;5.18;3.35;;;;;;;8.20;68.54;99748.03;4997847;28;102597;-73
2024/02/01 04:01:02;;;;;;;6.20;4.00;;;;;;;8.18;68.18;99752.59;4993086;28;103939;-73
2024/02/01 04:03:31;;;;;;;5.28;3.35;;;;;;;8.20;68.53;99750.66;5006590;28;103132;-73
2024/02/01 04:06:00;;;;;;;7.95;3.53;;;;;;;8.19;68.76;99751.63;4995267;28;102792;-72
2024/02/01 04:08:29;;;;;;;5.63;3.40;;;;;;;8.17;67.93;99758.81;5014159;28;107303;-72
2024/02/01 04:11:00;;;;;;;5.78;3.35;;;;;;;8.23;68.64;99762.78;5010236;28;103278;-72
2024/02/01 04:13:27;;;;;;;5.05;3.28;;;;;;;8.24;68.36;99767.06;5008824;28;103303;-72
2024/02/01 04:15:55;;;;;;;6.13;3.30;;;;;;;8.22;68.37;99761.91;5010808;28;102636;-72
2024/02/01 04:18:23;;;;;;;7.65;4.38;;;;;;;8.24;68.41;99753.88;5012078;28;103365;-72
2024/02/01 04:20:52;;;;;;;6.07;3.22;;;;;;;8.24;68.60;99760.00;4991128;28;104220;-72
2024/02/01 04:23:21;;;;;;;4.68;2.80;;;;;;;8.26;68.30;99744.03;5004993;28;104083;-72
2024/02/01 04:25:49;;;;;;;4.43;2.80;;;;;;;8.29;68.25;99747.25;5009202;28;102720;-72
2024/02/01 04:28:18;;;;;;;7.40;3.22;;;;;;;8.27;68.71;99737.78;5015144;28;102951;-72
2024/02/01 04:30:50;;;;;;;4.18;2.70;;;;;;;8.30;68.78;99737.53;4998098;28;104428;-72
2024/02/01 04:33:19;;;;;;;5.75;3.45;;;;;;;8.25;68.62;99739.72;5012731;28;103162;-72
2024/02/01 04:35:47;;;;;;;4.10;2.50;;;;;;;8.29;68.38;99746.41;5013974;28;102605;-73
2024/02/01 04:38:17;;;;;;;5.60;2.83;;;;;;;8.31;68.50;99733.94;4992767;28;104089;-72
2024/02/01 04:40:45;;;;;;;3.97;2.42;;;;;;;8.30;68.79;99743.66;5009827;28;104132;-72
2024/02/01 04:43:13;;;;;;;3.85;2.33;;;;;;;8.29;68.85;99735.84;4993158;28;104258;-72
2024/02/01 04:45:42;;;;;;;4.47;2.55;;;;;;;8.33;68.58;99731.16;5009001;28;102784;-72
2024/02/01 04:48:10;;;;;;;4.90;2.47;;;;;;;8.32;68.31;99724.19;4991735;28;104196;-72
2024/02/01 04:50:39;;;;;;;4.63;2.80;;;;;;;8.35;68.53;99730.06;5012958;28;104332;-72
2024/02/01 04:53:07;;;;;;;6.13;3.65;;;;;;;8.34;68.31;99728.38;5006077;28;103251;-72
2024/02/01 04:55:37;;;;;;;5.65;3.50;;;;;;;8.35;68.59;99724.78;5009401;28;102685;-73
2024/02/01 04:58:07;;;;;;;7.47;3.65;;;;;;;8.31;68.82;99728.66;4997275;28;102667;-73
2024/02/01 05:00:35;;;;;;;4.40;2.95;;;;;;;8.26;68.51;99726.38;5020986;28;104275;-72
2024/02/01 05:03:03;;;;;;;4.40;2.40;;;;;;;8.29;68.78;99723.50;5016685;28;103102;-72
2024/02/01 05:05:31;;;;;;;8.43;3.35;;;;;;;8.30;68.38;99721.69;5004279;28;103148;-73
2024/02/01 05:07:59;;;;;;;6.75;3.70;;;;;;;8.30;68.25;99716.41;5018568;28;103226;-73
2024/02/01 05:10:27;;;;;;;6.88;4.10;;;;;;;8.28;68.45;99718.38;4996918;28;104390;-72
2024/02/01 05:12:56;;;;;;;4.80;3.13;;;;;;;8.28;68.26;99729.75;4993826;28;104164;-72
2024/02/01 05:15:24;;;;;;;5.57;3.47;;;;;;;8.27;68.69;99727.25;5015509;28;102906;-72
2024/02/01 05:17:51;;;;;;;5.03;3.13;;;;;;;8.25;69.27;99734.44;4994084;28;102843;-72
2024/02/01 05:20:22;;;;;;;5.30;2.83;;;;;;;8.25;69.30;99729.16;5012637;28;104223;-72
2024/02/01 05:22:50;;;;;;;4.80;2.95;;;;;;;8.25;69.72;99723.88;4997261;28;104259;-73
2024/02/01 05:25:19;;;;;;;4.80;2.38;;;;;;;8.26;70.71;99715.00;4991356;28;102739;-73
2024/02/01 05:27:52;;;;;;;5.43;3.22;;;;;;;8.26;71.12;99715.00;4996690;28;104167;-73
2024/02/01 05:30:23;;;;;;;5.45;2.90;;;;;;;8.21;71.12;99714.53;4994291;28;104478;-71
2024/02/01 05:32:52;;;;;;;8.43;2.85;;;;;;;8.23;71.37;99707.34;5015849;28;103285;-72
2024/02/01 05:35:26;;;;;;;4.15;2.40;;;;;;;8.24;71.23;99696.66;5014214;28;103653;-72
2024/02/01 05:37:54;;;;;;;4.22;2.70;;;;;;;8.24;71.96;99701.06;4998997;28;103948;-73
2024/02/01 05:40:23;;;;;;;3.95;2.40;;;;;;;8.25;71.94;99697.47;5017026;28;103674;-74
2024/02/01 05:42:51;;;;;;;3.20;1.92;;;;;;;8.23;72.86;99700.25;5017443;28;103433;-73
2024/02/01 05:45:20;;;;;;;6.68;3.03;;;;;;;8.16;73.12;99695.63;5002436;28;102639;-75
2024/02/01 05:47:51;;;;;;;6.53;3.17;;;;;;;8.10;72.85;99700.44;5001444;28;104295;-74
2024/02/01 05:50:19;;;;;;;5.05;3.05;;;;;;;8.01;73.84;99710.94;5014153;28;104096;-73
2024/02/01 05:52:50;;;;;;;5.75;3.00;;;;;;;7.94;73.83;99711.44;5012668;28;103160;-74
2024/02/01 05:55:19;;;;;;;5.15;3.15;;;;;;;7.85;74.55;99712.19;5010059;28;102917;-74
2024/02/01 05:57:47;;;;;;;4.50;2.88;;;;;;;7.92;73.59;99718.63;4999851;28;102746;-73
2024/02/01 06:00:19;;;;;;;5.93;2.75;;;;;;;7.95;73.60;99728.09;5019906;28;103438;-75
2024/02/01 06:02:50;;;;;;;5.17;3.17;;;;;;;7.88;74.51;99732.19;5017517;28;103263;-73
2024/02/01 06:05:20;;;;;;;5.40;2.75;;;;;;;7.80;75.41;99741.56;4999874;28;102654;-73
2024/02/01 06:07:48;;;;;;;6.35;3.35;;;;;;;7.82;74.82;99744.09;4989704;28;104365;-72
2024/02/01 06:10:15;;;;;;;7.10;2.67;;;;;;;7.80;76.00;99746.00;4979153;28;104294;-72
2024/02/01 06:12:43;;;;;;;5.45;2.80;;;;;;;7.83;75.42;99740.47;4998912;28;103314;-74
2024/02/01 06:15:11;;;;;;;4.47;2.45;;;;;;;7.80;76.60;99746.84;5001185;28;102992;-73
2024/02/01 06:17:40;;;;;;;8.30;3.10;;;;;;;7.76;76.32;99750.69;4980088;28;103440;-73
2024/02/01 06:20:11;;;;;;;5.45;3.03;;;;;;;7.63;77.44;99760.56;4973593;28;103343;-73
2024/02/01 06:22:39;;;;;;;4.00;2.30;;;;;;;7.65;77.87;99763.91;4987959;28;103983;-73
2024/02/01 06:25:11;;;;;;;5.25;3.03;;;;;;;7.72;77.46;99762.44;4981746;28;102689;-72
2024/02/01 06:27:43;;;;;;;5.57;3.17;;;;;;;7.67;77.43;99759.34;5006769;28;103948;-74
2024/02/01 06:30:12;;;;;;;4.32;2.60;;;;;;;7.70;78.42;99760.91;5007785;28;104154;-73
2024/02/01 06:32:43;;;;;;;7.25;3.28;;;;;;;7.71;78.13;99763.41;4985560;28;103177;-72
2024/02/01 06:35:17;;;;;;;4.38;2.28;;;;;;;7.76;78.39;99758.59;4985891;28;103039;-73
2024/02/01 06:37:52;;;;;;;5.30;2.97;;;;;;;7.81;77.41;99760.88;4998335;28;103778;-73
2024/02/01 06:40:47;;;;;;;4.43;2.33;;;;;;;7.77;77.83;99751.53;5003830;28;104259;-73
2024/02/01 06:43:27;;;;;;;5.15;3.22;;;;;;;7.77;78.70;99762.91;4976765;28;107442;-74
2024/02/01 06:46:01;;;;;;;3.60;2.25;;;;;;;7.76;78.34;99769.16;4981766;28;104058;-72
2024/02/01 06:48:41;;;;;;;5.40;3.05;;;;;;;7.76;78.07;99771.78;5002151;28;104210;-73
2024/02/01 06:51:21;;;;;;;3.92;2.70;;;;;;;7.68;78.51;99770.75;4998729;28;103230;-74
2024/02/01 06:53:56;;;;;;;5.53;3.03;;;;;;;7.66;79.02;99770.84;4998838;28;103235;-73
2024/02/01 06:56:48;;;;;;;6.85;4.07;;;;;;;7.68;79.29;99774.22;4977902;28;102719;-73
2024/02/01 06:59:30;;;;;;;6.28;3.60;;;;;;;7.70;79.34;99777.53;5002365;28;102852;-75
2024/02/01 07:02:11;;;;;;;9.68;3.45;;;;;;;7.72;78.85;99778.28;4982684;28;103413;-76
2024/02/01 07:04:42;;;;;;;4.90;3.00;;;;;;;7.73;79.00;99765.91;4991235;28;103198;-76
2024/02/01 07:07:26;;;;;;;5.22;3.08;;;;;;;7.75;79.05;99758.72;5000584;28;102702;-76
2024/02/01 07:09:58;;;;;;;3.80;2.42;;;;;;;7.76;79.21;99755.97;4986290;28;103219;-77
2024/02/01 07:12:42;;;;;;;5.35;2.60;;;;;;;7.76;79.06;99748.06;4977452;28;104673;-76
2024/02/01 07:15:22;;;;;;;8.85;4.32;;;;;;;7.77;78.76;99747.09;4999588;28;103332;-76
2024/02/01 07:17:58;;;;;;;6.65;3.45;;;;;;;7.71;78.98;99750.22;4998583;28;102693;-77
2024/02/01 07:20:35;;;;;;;6.20;3.90;;;;;;;7.62;79.92;99754.47;5001484;28;104246;-76
2024/02/01 07:23:33;;;;;;;7.15;4.10;;;;;;;7.63;79.86;99756.09;4972070;28;104882;-75
2024/02/01 07:26:02;;;;;;;5.60;3.35;;;;;;;7.60;80.14;99756.38;4980718;28;103275;-75
2024/02/01 07:58:53;;;;;;;5.15;2.50;;;;;;;7.69;80.38;99789.06;4993104;28;103338;-75
2024/02/01 08:01:24;;;;;;;5.47;2.40;;;;;;;7.73;80.23;99779.94;4977719;28;103148;-76
2024/02/01 08:04:01;;;;;;;2.97;2.10;;;;;;;7.73;80.45;99785.22;4989171;28;103990;-75
2024/02/01 08:09:29;;;;;;;3.60;1.95;;;;;;;7.82;80.58;99790.72;4946891;28;103245;-76
2024/02/01 08:11:58;;;;;;;3.83;2.13;;;;;;;7.82;80.23;99794.22;4965657;28;103058;-76
2024/02/01 08:14:27;;;;;;;4.25;2.67;;;;;;;7.76;80.04;99792.06;5001913;28;102802;-76
2024/02/01 08:16:57;;;;;;;4.15;2.42;;;;;;;7.80;80.49;99799.59;5003297;28;103728;-76
2024/02/01 08:19:25;;;;;;;5.60;2.70;;;;;;;7.75;80.43;99795.66;4985148;28;104470;-76
2024/02/01 08:22:08;;;;;;;4.53;2.50;;;;;;;7.74;80.42;99805.38;5009434;28;102673;-75
2024/02/01 08:24:37;;;;;;;5.03;2.30;;;;;;;7.74;80.79;99804.50;4986958;28;104169;-75
2024/02/01 08:27:14;;;;;;;5.65;2.53;;;;;;;7.79;80.60;99805.84;4996363;27;103222;-76
2024/02/01 08:29:45;;;;;;;4.90;2.70;;;;;;;7.80;80.54;99807.50;5006666;28;103171;-77
2024/02/01 08:32:21;;;;;;;3.78;2.30;;;;;;;7.77;80.55;99810.38;4989059;28;102716;-77
2024/02/01 08:34:54;;;;;;;5.38;2.47;;;;;;;7.81;80.27;99808.34;5008343;28;103236;-76
2024/02/01 08:37:28;;;;;;;3.92;2.30;;;;;;;7.82;80.57;99807.41;5007484;28;103289;-74
2024/02/01 08:39:56;;;;;;;3.58;1.98;;;;;;;7.82;80.48;99817.94;5004982;28;103041;-76
2024/02/01 08:42:29;;;;;;;3.80;2.50;;;;;;;7.82;80.64;99823.22;5007355;28;103046;-76
2024/02/01 08:45:01;;;;;;;4.60;2.00;;;;;;;7.88;80.39;99811.34;5005826;28;103060;-75
2024/02/01 08:47:29;;;;;;;4.32;2.20;;;;;;;7.84;80.32;99818.66;4987004;28;103279;-76
2024/02/01 08:50:06;;;;;;;2.53;1.70;;;;;;;7.84;80.70;99826.56;4980925;28;104455;-77
2024/02/01 08:52:34;;;;;;;4.45;2.30;;;;;;;7.84;80.65;99815.19;4999490;28;102778;-76
2024/02/01 08:55:10;;;;;;;3.33;2.00;;;;;;;7.83;80.88;99830.16;5000558;28;102783;-76
2024/02/01 08:57:40;;;;;;;5.13;2.60;;;;;;;7.89;80.82;99828.84;4983802;28;105188;-75
2024/02/01 09:00:25;;;;;;;3.65;1.60;;;;;;;7.88;80.71;99825.34;5001027;28;103259;-76
2024/02/01 09:03:04;;;;;;;3.08;1.70;;;;;;;7.90;81.07;99828.72;4986802;28;102854;-76
2024/02/01 09:05:34;;;;;;;2.88;1.80;;;;;;;7.96;80.98;99835.28;4999999;28;104275;-75
2024/02/01 09:08:03;;;;;;;3.60;1.80;;;;;;;7.92;81.12;99839.13;4990451;28;104537;-75
2024/02/01 09:10:32;;;;;;;3.42;1.90;;;;;;;7.93;80.81;99838.19;4982608;28;104502;-76
2024/02/01 09:13:01;;;;;;;5.78;2.47;;;;;;;7.96;80.93;99835.28;5004255;27;102627;-74
2024/02/01 09:15:31;;;;;;;4.15;2.10;;;;;;;7.92;80.85;99839.13;5006267;28;103740;-75
2024/02/01 09:17:59;;;;;;;4.25;1.90;;;;;;;8.00;81.06;99847.25;4999469;28;104343;-74
2024/02/01 09:20:27;;;;;;;3.45;1.80;;;;;;;8.07;80.40;99844.97;5004182;28;103237;-75
2024/02/01 09:22:57;;;;;;;3.88;1.88;;;;;;;8.16;80.00;99846.84;4984226;28;102720;-74
2024/02/01 09:25:26;;;;;;;2.83;1.73;;;;;;;8.23;80.12;99847.22;5001381;28;103710;-74
2024/02/01 09:27:58;;;;;;;4.35;2.13;;;;;;;8.18;79.88;99844.13;5000658;28;103219;-74
2024/02/01 09:30:31;;;;;;;4.25;2.22;;;;;;;8.33;79.84;99847.31;4991905;28;103250;-74
2024/02/01 09:32:59;;;;;;;3.37;1.97;;;;;;;8.33;80.05;99837.56;5004350;28;103035;-74
2024/02/01 09:35:27;;;;;;;4.50;2.15;;;;;;;8.36;79.90;99842.63;4999880;28;104255;-74
2024/02/01 09:37:55;;;;;;;5.35;2.22;;;;;;;8.38;80.07;99850.41;5006132;28;103955;-74
2024/02/01 09:40:26;;;;;;;4.32;2.10;;;;;;;8.37;79.46;99854.00;5005391;28;103453;-74
2024/02/01 09:42:54;;;;;;;3.20;1.67;;;;;;;8.43;79.48;99854.34;5007225;27;102545;-74
2024/02/01 09:45:29;;;;;;;4.67;1.80;;;;;;;8.47;79.52;99852.31;5003472;28;104089;-74
2024/02/01 09:47:57;;;;;;;2.83;1.80;;;;;;;8.50;79.37;99864.44;5008724;28;104185;-73
2024/02/01 09:50:25;;;;;;;2.65;1.63;;;;;;;8.50;79.89;99869.72;4994863;28;103223;-74
2024/02/01 09:52:59;;;;;;;5.45;2.10;;;;;;;8.54;79.47;99865.84;5009957;28;102673;-74
2024/02/01 09:55:36;;;;;;;3.45;2.05;;;;;;;8.55;79.69;99878.09;4986205;28;104307;-75
2024/02/01 09:58:05;;;;;;;2.38;1.55;;;;;;;8.60;79.08;99886.47;5014715;28;104176;-74
2024/02/01 10:00:36;;;;;;;3.15;1.88;;;;;;;8.61;79.27;99883.72;5003510;28;103619;-74
2024/02/01 10:03:08;;;;;;;4.10;2.25;;;;;;;8.54;79.25;99886.97;5007284;28;102652;-74
2024/02/01 10:05:36;;;;;;;3.50;1.92;;;;;;;8.59;78.74;99879.50;5002988;28;103700;-73
2024/02/01 10:08:10;;;;;;;4.05;2.17;;;;;;;8.63;79.67;99875.66;4983084;28;104003;-73
2024/02/01 10:10:39;;;;;;;3.00;1.90;;;;;;;8.65;79.25;99880.81;4991109;28;103276;-74
2024/02/01 10:13:13;;;;;;;2.55;1.77;;;;;;;8.66;79.68;99885.13;4980480;28;102896;-73
2024/02/01 10:15:45;;;;;;;4.97;1.85;;;;;;;8.70;79.38;99876.84;4992771;28;103351;-74
2024/02/01 10:18:17;;;;;;;3.47;2.08;;;;;;;8.64;79.89;99874.69;4989088;28;104193;-74
2024/02/01 10:20:49;;;;;;;5.35;2.20;;;;;;;8.58;80.07;99885.75;4987341;28;103270;-74
2024/02/01 10:23:19;;;;;;;2.95;1.70;;;;;;;8.59;80.42;99874.22;5006926;28;102658;-74
2024/02/01 10:25:49;;;;;;;4.32;1.85;;;;;;;8.58;80.26;99883.13;5002120;28;103427;-74
2024/02/01 10:28:19;;;;;;;4.53;1.67;;;;;;;8.61;80.38;99877.59;5000152;28;104554;-74
2024/02/01 10:30:49;;;;;;;2.58;1.55;;;;;;;8.66;80.09;99875.41;4995990;28;103283;-74
2024/02/01 10:33:18;;;;;;;3.42;1.67;;;;;;;8.72;80.13;99874.88;5008861;28;102727;-74
2024/02/01 10:35:49;;;;;;;3.47;1.73;;;;;;;8.78;80.32;99869.09;4988642;28;104155;-74
2024/02/01 10:38:21;;;;;;;2.78;1.50;;;;;;;8.79;80.37;99864.69;4988004;28;104039;-75
2024/02/01 10:40:58;;;;;;;3.60;1.55;;;;;;;8.88;79.91;99863.91;5012401;28;103026;-75
2024/02/01 10:43:29;;;;;;;3.65;1.70;;;;;;;8.88;79.97;99863.03;4988164;28;102697;-75
2024/02/01 10:46:06;;;;;;;2.25;1.25;;;;;;;8.92;79.90;99859.19;4989056;28;104317;-75
2024/02/01 10:48:43;;;;;;;2.53;1.65;;;;;;;8.99;79.80;99864.78;5006286;28;103243;-74
2024/02/01 10:51:13;;;;;;;3.10;1.48;;;;;;;9.08;79.70;99853.47;4970955;28;103501;-74
2024/02/01 10:53:44;;;;;;;2.72;1.67;;;;;;;8.86;80.03;99851.78;5007899;28;102613;-75
2024/02/01 10:56:15;;;;;;;3.80;1.70;;;;;;;9.04;79.74;99852.03;5008066;28;102634;-75
2024/02/01 10:58:48;;;;;;;4.97;1.55;;;;;;;9.01;79.76;99844.38;4985975;28;103418;-74
2024/02/01 11:01:24;;;;;;;3.40;1.95;;;;;;;9.06;79.72;99842.16;4999675;28;103213;-73
2024/02/01 11:03:53;;;;;;;1.95;1.50;;;;;;;9.09;79.81;99845.41;5004192;28;102594;-74
2024/02/01 11:06:21;;;;;;;2.38;1.45;;;;;;;9.19;80.08;99839.31;4985910;28;103152;-74
2024/02/01 11:08:52;;;;;;;3.17;1.73;;;;;;;9.18;79.69;99846.41;4984274;28;104134;-74
2024/02/01 11:11:21;;;;;;;3.10;1.70;;;;;;;9.10;79.52;99840.94;4995765;28;104263;-74
2024/02/01 11:14:08;;;;;;;2.88;1.50;;;;;;;9.23;79.28;99846.03;4987616;28;103010;-74
2024/02/01 11:16:42;;;;;;;2.10;1.40;;;;;;;9.28;79.97;99847.28;5006621;28;102929;-74
2024/02/01 11:19:11;;;;;;;2.30;1.30;;;;;;;9.19;79.71;99849.91;5005017;28;103899;-75
2024/02/01 11:21:47;;;;;;;4.35;1.60;;;;;;;9.18;79.10;99842.94;5003560;28;103209;-74
2024/02/01 11:24:19;;;;;;;3.10;1.70;;;;;;;9.25;78.99;99838.81;4983203;28;102662;-75
2024/02/01 11:26:47;;;;;;;2.70;1.65;;;;;;;9.19;78.63;99834.88;5010715;28;104185;-75
2024/02/01 11:29:24;;;;;;;2.35;1.45;;;;;;;9.18;79.25;99842.94;5005045;28;103363;-74
2024/02/01 11:31:57;;;;;;;2.90;1.70;;;;;;;9.30;78.73;99836.56;4991230;28;103139;-75
2024/02/01 11:34:26;;;;;;;2.13;1.50;;;;;;;9.28;79.03;99841.19;5004235;28;103174;-75
2024/02/01 11:36:55;;;;;;;2.17;1.40;;;;;;;9.44;78.79;99836.22;5005287;28;104192;-75
2024/02/01 11:39:23;;;;;;;3.15;1.70;;;;;;;9.49;78.87;99829.72;4981798;28;104587;-75
2024/02/01 11:41:53;;;;;;;2.13;1.42;;;;;;;9.42;78.90;99829.44;5004080;28;103147;-74
2024/02/01 11:44:23;;;;;;;4.30;1.90;;;;;;;9.61;78.26;99820.72;4987473;28;102685;-73
2024/02/01 11:46:53;;;;;;;2.90;1.70;;;;;;;9.46;78.35;99829.00;4999797;28;104161;-74
2024/02/01 11:49:25;;;;;;;2.33;1.58;;;;;;;9.73;78.11;99835.53;5003347;28;104133;-75
2024/02/01 11:52:13;;;;;;;2.60;1.70;;;;;;;9.78;77.98;99829.81;4988833;28;103234;-75
2024/02/01 11:54:46;;;;;;;2.90;1.80;;;;;;;9.72;77.45;99831.19;4993741;28;102749;-74
2024/02/01 11:57:17;;;;;;;3.22;2.03;;;;;;;9.74;77.57;99831.88;5007365;28;104204;-74
2024/02/01 11:59:48;;;;;;;3.22;2.20;;;;;;;9.77;77.48;99842.22;5004626;28;103198;-73
2024/02/01 12:02:17;;;;;;;2.88;1.58;;;;;;;9.73;77.48;99832.88;5006466;28;103239;-75
2024/02/01 12:04:49;;;;;;;2.95;1.70;;;;;;;9.62;76.95;99841.72;5006434;28;102688;-74
2024/02/01 12:07:18;;;;;;;2.50;1.70;;;;;;;9.54;77.32;99841.56;4992741;28;104394;-75
2024/02/01 12:09:47;;;;;;;2.58;1.70;;;;;;;9.60;77.23;99830.47;4986200;28;104152;-73
2024/02/01 12:12:23;;;;;;;2.75;1.70;;;;;;;9.56;77.67;99826.41;4973986;28;103047;-74
2024/02/01 12:14:53;;;;;;;3.95;1.73;;;;;;;9.48;77.25;99838.63;4999585;28;102641;-75
2024/02/01 12:17:24;;;;;;;4.10;1.73;;;;;;;9.53;76.93;99847.00;4988515;28;103569;-76
2024/02/01 12:19:55;;;;;;;2.57;1.87;;;;;;;9.50;77.01;99841.94;4981510;28;103239;-74